Time;durP1;ratioP1;P1;durP2;ratioP2;P2;SDS_P1;SDS_P2;PMS_P1;PMS_P2;Temp;Humidity;BMP_temperature;BMP_pressure;BME280_temperature;BME280_humidity;BME280_pressure;Samples;Min_cycle;Max_cycle;Signal;HPM_P1;HPM_P2
2021/11/06 00:01:07;;;;;;;;;;;;;;;10.50;79.70;102028.71;1886511;76;20155;-61
2021/11/06 00:03:35;;;;;;;;;;;;;;;10.55;79.43;102022.02;1886578;76;20133;-62
2021/11/06 00:06:03;;;;;;;;;;;;;;;10.60;79.21;102022.81;1886507;76;20120;-61
2021/11/06 00:08:30;;;;;;;;;;;;;;;10.65;78.95;102017.02;1886665;76;20151;-61
2021/11/06 00:10:59;;;;;;;;;;;;;;;10.64;78.77;102016.59;1886532;76;20155;-61
2021/11/06 00:13:27;;;;;;;;;;;;;;;10.63;78.68;102020.14;1886634;76;20160;-61
2021/11/06 00:15:55;;;;;;;;;;;;;;;10.57;78.62;102016.31;1886531;76;20120;-61
2021/11/06 00:18:23;;;;;;;;;;;;;;;10.54;78.59;102013.72;1886116;76;20120;-61
2021/11/06 00:20:51;;;;;;;;;;;;;;;10.48;78.56;102023.92;1886491;76;20121;-61
2021/11/06 00:23:19;;;;;;;;;;;;;;;10.47;78.59;102031.84;1886293;76;20105;-61
2021/11/06 00:25:47;;;;;;;;;;;;;;;10.43;78.60;102024.45;1886477;76;20183;-61
2021/11/06 00:28:15;;;;;;;;;;;;;;;10.45;78.51;102028.38;1886541;76;20104;-61
2021/11/06 00:30:42;;;;;;;;;;;;;;;10.38;78.58;102028.50;1886456;76;20124;-61
2021/11/06 00:33:10;;;;;;;;;;;;;;;10.38;78.58;102025.86;1886476;76;20116;-61
2021/11/06 00:35:38;;;;;;;;;;;;;;;10.37;78.64;102025.42;1876838;76;20126;-62
2021/11/06 00:38:06;;;;;;;;;;;;;;;10.38;78.55;102028.50;1866399;77;20121;-61
2021/11/06 00:40:34;;;;;;;;;;;;;;;10.39;78.44;102030.22;1869066;77;20121;-61
2021/11/06 00:43:02;;;;;;;;;;;;;;;10.36;78.31;102028.08;1866446;77;20151;-61
2021/11/06 00:45:30;;;;;;;;;;;;;;;10.35;78.26;102032.48;1867457;77;20151;-61
2021/11/06 00:47:58;;;;;;;;;;;;;;;10.37;78.19;102029.83;1868754;77;20113;-61
2021/11/06 00:50:26;;;;;;;;;;;;;;;10.36;78.13;102032.89;1868695;77;20152;-62
2021/11/06 00:52:54;;;;;;;;;;;;;;;10.34;78.12;102041.27;1867445;77;20117;-61
2021/11/06 00:55:22;;;;;;;;;;;;;;;10.27;78.11;102042.23;1868249;77;20121;-61
2021/11/06 00:57:50;;;;;;;;;;;;;;;10.22;78.16;102033.56;1867128;77;20156;-61
2021/11/06 01:00:19;;;;;;;;;;;;;;;10.18;78.17;102028.80;1866271;77;20121;-61
2021/11/06 01:02:47;;;;;;;;;;;;;;;10.13;78.29;102030.63;1869464;77;20426;-61
2021/11/06 01:05:16;;;;;;;;;;;;;;;10.05;78.54;102029.45;1867752;77;20105;-61
2021/11/06 01:07:43;;;;;;;;;;;;;;;9.94;78.95;102032.70;1868075;77;20121;-62
2021/11/06 01:10:13;;;;;;;;;;;;;;;9.91;79.00;102026.16;1867513;77;20156;-61
2021/11/06 01:12:41;;;;;;;;;;;;;;;9.93;78.94;102028.31;1867750;77;20153;-61
2021/11/06 01:15:12;;;;;;;;;;;;;;;9.89;78.97;102033.21;1868654;77;20113;-61
2021/11/06 01:17:39;;;;;;;;;;;;;;;9.91;78.90;102029.25;1867161;77;20120;-62
2021/11/06 01:20:08;;;;;;;;;;;;;;;9.95;78.80;102030.47;1867613;77;20172;-62
2021/11/06 01:22:36;;;;;;;;;;;;;;;9.96;78.73;102019.08;1870706;77;20147;-61
2021/11/06 01:25:04;;;;;;;;;;;;;;;9.94;78.63;102026.13;1868011;77;20117;-62
2021/11/06 01:27:33;;;;;;;;;;;;;;;9.94;78.55;102019.55;1868125;77;20375;-61
2021/11/06 01:30:01;;;;;;;;;;;;;;;9.97;78.48;102022.56;1867819;77;20117;-62
2021/11/06 01:32:28;;;;;;;;;;;;;;;10.00;78.36;102025.16;1868395;77;20121;-62
2021/11/06 01:34:56;;;;;;;;;;;;;;;9.94;78.45;102027.86;1869227;77;20259;-62
2021/11/06 01:37:24;;;;;;;;;;;;;;;9.93;78.49;102033.58;1852728;76;20158;-62
2021/11/06 01:39:52;;;;;;;;;;;;;;;9.93;78.41;102028.31;1850547;76;20121;-62
2021/11/06 01:42:21;;;;;;;;;;;;;;;9.92;78.36;102030.97;1850453;78;20125;-62
2021/11/06 01:44:49;;;;;;;;;;;;;;;9.91;78.37;102022.22;1850500;78;20164;-62
2021/11/06 01:47:16;;;;;;;;;;;;;;;9.91;78.24;102026.16;1850498;78;20168;-62
2021/11/06 01:49:44;;;;;;;;;;;;;;;9.88;78.18;102030.14;1850537;78;20148;-62
2021/11/06 01:52:12;;;;;;;;;;;;;;;9.85;78.23;102033.70;1850546;78;20121;-62
2021/11/06 01:54:40;;;;;;;;;;;;;;;9.82;78.28;102026.30;1850515;78;20148;-62
2021/11/06 01:57:08;;;;;;;;;;;;;;;9.79;78.29;102027.66;1850448;78;20129;-62
2021/11/06 01:59:36;;;;;;;;;;;;;;;9.74;78.43;102029.48;1850520;78;20105;-62
2021/11/06 02:02:04;;;;;;;;;;;;;;;9.68;78.48;102031.76;1850507;78;20109;-62
2021/11/06 02:04:32;;;;;;;;;;;;;;;9.73;78.39;102030.39;1850508;78;20172;-62
2021/11/06 02:06:59;;;;;;;;;;;;;;;9.76;78.22;102032.53;1850490;78;20152;-62
2021/11/06 02:09:27;;;;;;;;;;;;;;;9.76;78.09;102031.67;1850472;78;20168;-64
2021/11/06 02:11:55;;;;;;;;;;;;;;;9.71;77.93;102034.35;1850516;78;20121;-63
2021/11/06 02:14:23;;;;;;;;;;;;;;;9.66;77.84;102038.80;1850513;78;20147;-62
2021/11/06 02:16:55;;;;;;;;;;;;;;;9.63;77.75;102037.09;1850540;78;20375;-62
2021/11/06 02:19:27;;;;;;;;;;;;;;;9.61;77.65;102034.94;1850541;78;20121;-62
2021/11/06 02:21:55;;;;;;;;;;;;;;;9.58;77.55;102034.97;1850456;78;20352;-63
2021/11/06 02:24:23;;;;;;;;;;;;;;;9.56;77.56;102031.50;1850421;78;20406;-62
2021/11/06 02:26:51;;;;;;;;;;;;;;;9.47;77.82;102031.62;1850508;78;20118;-61
2021/11/06 02:29:19;;;;;;;;;;;;;;;9.39;78.09;102030.88;1850552;78;20125;-61
2021/11/06 02:31:47;;;;;;;;;;;;;;;9.36;78.47;102034.85;1850510;78;20172;-62
2021/11/06 02:34:15;;;;;;;;;;;;;;;9.35;78.51;102026.11;1850526;78;20105;-61
2021/11/06 02:36:43;;;;;;;;;;;;;;;9.35;78.84;102031.36;1866879;76;20121;-62
2021/11/06 02:39:11;;;;;;;;;;;;;;;9.38;78.63;102037.01;1886763;76;20116;-62
2021/11/06 02:41:39;;;;;;;;;;;;;;;9.41;78.50;102030.41;1886662;76;20406;-61
2021/11/06 02:44:08;;;;;;;;;;;;;;;9.42;78.33;102030.81;1886791;76;20120;-60
2021/11/06 02:46:36;;;;;;;;;;;;;;;9.37;78.20;102036.57;1885846;76;20121;-61
2021/11/06 02:49:05;;;;;;;;;;;;;;;9.29;78.10;102035.36;1886658;76;20116;-62
2021/11/06 02:51:33;;;;;;;;;;;;;;;9.19;78.06;102039.02;1886787;76;20118;-62
2021/11/06 02:54:02;;;;;;;;;;;;;;;9.06;78.08;102035.22;1886833;76;20155;-62
2021/11/06 02:56:29;;;;;;;;;;;;;;;8.96;78.07;102035.34;1886809;76;20129;-61
2021/11/06 02:58:57;;;;;;;;;;;;;;;8.87;78.08;102033.67;1886781;76;20171;-62
2021/11/06 03:01:25;;;;;;;;;;;;;;;8.79;78.03;102038.16;1886741;76;20190;-61
2021/11/06 03:03:53;;;;;;;;;;;;;;;8.70;78.04;102033.86;1886628;76;20526;-62
2021/11/06 03:06:22;;;;;;;;;;;;;;;8.64;78.09;102035.25;1886759;76;20125;-62
2021/11/06 03:08:50;;;;;;;;;;;;;;;8.59;78.12;102030.48;1886704;76;20104;-62
2021/11/06 03:11:18;;;;;;;;;;;;;;;8.53;78.13;102025.30;1886735;76;20198;-62
2021/11/06 03:13:46;;;;;;;;;;;;;;;8.43;78.38;102028.02;1886733;76;20116;-62
2021/11/06 03:16:15;;;;;;;;;;;;;;;8.27;78.94;102025.08;1886657;76;20120;-64
2021/11/06 03:18:42;;;;;;;;;;;;;;;8.24;78.86;102022.47;1886709;76;20105;-63
2021/11/06 03:21:10;;;;;;;;;;;;;;;8.24;78.74;102020.70;1886830;76;20117;-64
2021/11/06 03:23:38;;;;;;;;;;;;;;;8.24;78.64;102014.14;1886875;76;20167;-63
2021/11/06 03:26:06;;;;;;;;;;;;;;;8.19;78.64;102019.89;1886864;76;20121;-63
2021/11/06 03:28:33;;;;;;;;;;;;;;;8.08;79.15;102016.05;1886839;76;20176;-62
2021/11/06 03:31:01;;;;;;;;;;;;;;;7.98;79.50;102002.56;1886768;76;20147;-63
2021/11/06 03:33:29;;;;;;;;;;;;;;;7.86;79.77;101998.30;1886948;76;20116;-62
2021/11/06 03:35:57;;;;;;;;;;;;;;;7.72;80.26;102006.25;1886815;76;20117;-62
2021/11/06 03:38:25;;;;;;;;;;;;;;;7.67;80.11;102018.55;1855670;76;20161;-62
2021/11/06 03:40:53;;;;;;;;;;;;;;;7.63;80.10;102015.48;1850585;78;20152;-62
2021/11/06 03:43:21;;;;;;;;;;;;;;;7.56;80.15;102015.09;1850464;78;20109;-63
2021/11/06 03:45:49;;;;;;;;;;;;;;;7.49;80.54;102012.10;1850697;78;20113;-62
2021/11/06 03:48:17;;;;;;;;;;;;;;;7.49;80.68;102016.03;1850602;78;20402;-62
2021/11/06 03:50:44;;;;;;;;;;;;;;;7.40;81.30;102019.57;1850668;78;20126;-62
2021/11/06 03:53:13;;;;;;;;;;;;;;;7.34;81.26;102024.41;1850578;78;20191;-62
2021/11/06 03:55:40;;;;;;;;;;;;;;;7.29;81.25;102015.69;1850575;78;20121;-62
2021/11/06 03:58:08;;;;;;;;;;;;;;;7.26;81.40;102020.94;1850493;78;20199;-62
2021/11/06 04:00:36;;;;;;;;;;;;;;;7.25;81.46;102013.97;1850579;78;20121;-62
2021/11/06 04:03:04;;;;;;;;;;;;;;;7.26;81.24;102007.83;1850541;78;20113;-62
2021/11/06 04:05:32;;;;;;;;;;;;;;;7.28;81.39;102013.07;1850565;78;20121;-62
2021/11/06 04:07:59;;;;;;;;;;;;;;;7.28;81.36;102013.94;1850533;78;20117;-61
2021/11/06 04:10:27;;;;;;;;;;;;;;;7.33;81.17;102009.55;1850473;78;20151;-62
2021/11/06 04:12:55;;;;;;;;;;;;;;;7.34;81.04;102009.09;1850558;78;20117;-62
2021/11/06 04:15:22;;;;;;;;;;;;;;;7.32;80.94;102014.79;1850553;78;20152;-62
2021/11/06 04:17:50;;;;;;;;;;;;;;;7.33;80.82;102014.79;1850575;78;20136;-62
2021/11/06 04:20:18;;;;;;;;;;;;;;;7.33;80.80;102017.41;1850575;78;20157;-62
2021/11/06 04:22:50;;;;;;;;;;;;;;;7.34;80.93;102025.72;1850547;78;20117;-61
2021/11/06 04:25:15;;;;;;;;;;;;;;;7.32;80.81;102023.55;1850645;76;20129;-61
2021/11/06 04:27:43;;;;;;;;;;;;;;;7.32;80.78;102026.16;1850664;78;20145;-61
2021/11/06 04:30:11;;;;;;;;;;;;;;;7.37;80.68;102031.81;1850544;78;20121;-62
2021/11/06 04:32:39;;;;;;;;;;;;;;;7.45;80.55;102032.63;1850563;78;20117;-62
2021/11/06 04:35:07;;;;;;;;;;;;;;;7.52;80.48;102033.92;1850546;78;20152;-61
2021/11/06 04:37:35;;;;;;;;;;;;;;;7.62;80.43;102039.11;1850424;78;20118;-62
2021/11/06 04:40:04;;;;;;;;;;;;;;;7.73;80.39;102039.92;1850533;78;20109;-61
2021/11/06 04:42:31;;;;;;;;;;;;;;;7.80;80.25;102035.48;1850529;78;20383;-62
2021/11/06 04:44:59;;;;;;;;;;;;;;;7.84;80.22;102047.69;1850605;78;20148;-61
2021/11/06 04:47:27;;;;;;;;;;;;;;;7.90;80.10;102051.15;1850594;78;20118;-61
2021/11/06 04:49:55;;;;;;;;;;;;;;;7.98;79.97;102054.16;1850549;78;20396;-61
2021/11/06 04:52:23;;;;;;;;;;;;;;;8.08;79.88;102050.16;1850505;78;20196;-62
2021/11/06 04:54:51;;;;;;;;;;;;;;;8.21;79.69;102057.94;1850563;78;20117;-62
2021/11/06 04:57:19;;;;;;;;;;;;;;;8.29;79.52;102058.28;1850548;78;20203;-64
2021/11/06 04:59:47;;;;;;;;;;;;;;;8.31;79.37;102058.27;1850726;78;20113;-64
2021/11/06 05:02:15;;;;;;;;;;;;;;;8.32;79.30;102060.02;1850517;78;20117;-63
2021/11/06 05:04:43;;;;;;;;;;;;;;;8.31;79.35;102054.33;1850490;78;20121;-64
2021/11/06 05:07:11;;;;;;;;;;;;;;;8.29;79.46;102052.17;1850530;78;20147;-62
2021/11/06 05:09:39;;;;;;;;;;;;;;;8.31;79.55;102061.75;1850566;76;20164;-61
2021/11/06 05:12:07;;;;;;;;;;;;;;;8.45;79.42;102059.51;1850544;78;20118;-62
2021/11/06 05:14:35;;;;;;;;;;;;;;;8.68;79.06;102060.59;1850557;78;20125;-62
2021/11/06 05:17:03;;;;;;;;;;;;;;;8.97;78.59;102065.98;1850506;78;20139;-63
2021/11/06 05:19:30;;;;;;;;;;;;;;;9.43;77.74;102068.92;1850499;78;20105;-61
2021/11/06 05:21:58;;;;;;;;;;;;;;;10.19;76.34;102071.31;1850539;78;20261;-61
2021/11/06 05:24:26;;;;;;;;;;;;;;;10.97;74.78;102070.86;1850526;78;20121;-61
2021/11/06 05:26:54;;;;;;;;;;;;;;;11.68;74.33;102079.50;1850582;78;20113;-61
2021/11/06 05:29:22;;;;;;;;;;;;;;;12.31;73.96;102078.04;1850632;78;20109;-61
2021/11/06 05:31:49;;;;;;;;;;;;;;;12.91;73.39;102080.88;1850447;78;20437;-60
2021/11/06 05:34:17;;;;;;;;;;;;;;;13.38;72.75;102073.42;1850540;78;20125;-60
2021/11/06 05:36:45;;;;;;;;;;;;;;;13.93;72.22;102073.98;1850501;78;20117;-60
2021/11/06 05:39:12;;;;;;;;;;;;;;;14.42;72.25;102075.00;1877604;76;20636;-61
2021/11/06 05:41:40;;;;;;;;;;;;;;;14.70;70.80;102078.05;1886768;76;20124;-61
2021/11/06 05:44:08;;;;;;;;;;;;;;;14.83;69.92;102075.41;1886801;76;20117;-63
2021/11/06 05:46:36;;;;;;;;;;;;;;;14.90;69.81;102072.91;1886804;76;20180;-61
2021/11/06 05:49:04;;;;;;;;;;;;;;;15.02;69.97;102075.59;1886821;76;20116;-61
2021/11/06 05:51:32;;;;;;;;;;;;;;;15.48;68.72;102073.87;1887003;76;20399;-59
2021/11/06 05:53:59;;;;;;;;;;;;;;;16.18;67.97;102067.56;1886817;76;20160;-60
2021/11/06 05:56:27;;;;;;;;;;;;;;;16.82;68.12;102056.88;1886804;76;20124;-59
2021/11/06 05:58:55;;;;;;;;;;;;;;;17.39;68.15;102051.67;1886728;76;20105;-59
2021/11/06 06:01:23;;;;;;;;;;;;;;;18.06;67.44;102049.78;1886806;76;20128;-59
2021/11/06 06:03:52;;;;;;;;;;;;;;;18.63;66.44;102046.89;1886791;76;20143;-60
2021/11/06 06:06:21;;;;;;;;;;;;;;;18.93;65.93;102050.73;1886890;76;20442;-60
2021/11/06 06:08:49;;;;;;;;;;;;;;;19.05;65.94;102046.05;1886810;76;20199;-59
2021/11/06 06:11:17;;;;;;;;;;;;;;;19.29;65.22;102059.86;1886746;76;20117;-60
2021/11/06 06:13:45;;;;;;;;;;;;;;;19.44;65.30;102063.04;1886774;76;20117;-60
2021/11/06 06:16:13;;;;;;;;;;;;;;;19.51;64.94;102062.20;1886805;76;20105;-60
2021/11/06 06:18:40;;;;;;;;;;;;;;;19.57;64.64;102055.20;1886783;76;20121;-60
2021/11/06 06:21:08;;;;;;;;;;;;;;;19.48;64.36;102049.05;1886786;76;20159;-60
2021/11/06 06:23:36;;;;;;;;;;;;;;;19.11;64.04;102044.40;1886786;76;20113;-60
2021/11/06 06:26:04;;;;;;;;;;;;;;;19.15;64.07;102037.09;1886740;76;20151;-60
2021/11/06 06:28:32;;;;;;;;;;;;;;;19.67;61.95;102043.03;1886801;76;20230;-59
2021/11/06 06:30:59;;;;;;;;;;;;;;;20.12;61.59;102044.98;1886824;76;20172;-59
2021/11/06 06:33:27;;;;;;;;;;;;;;;20.55;60.61;102038.43;1886826;76;20120;-59
2021/11/06 06:35:55;;;;;;;;;;;;;;;21.04;59.20;102033.22;1886740;76;20606;-59
2021/11/06 06:38:23;;;;;;;;;;;;;;;21.42;58.44;102029.44;1881314;76;20125;-60
2021/11/06 06:40:51;;;;;;;;;;;;;;;21.72;57.38;102025.75;1850469;78;20192;-60
2021/11/06 06:43:19;;;;;;;;;;;;;;;22.01;55.79;102021.14;1850470;78;20492;-60
2021/11/06 06:45:47;;;;;;;;;;;;;;;22.31;54.84;102016.02;1850528;78;20101;-59
2021/11/06 06:48:14;;;;;;;;;;;;;;;22.68;54.51;102019.69;1850536;78;20109;-60
2021/11/06 06:50:46;;;;;;;;;;;;;;;22.98;54.76;102023.88;1850522;78;20105;-59
2021/11/06 06:53:12;;;;;;;;;;;;;;;23.22;54.90;102021.75;1850631;76;20137;-60
2021/11/06 06:55:40;;;;;;;;;;;;;;;23.75;55.21;102018.77;1850638;78;20191;-59
2021/11/06 06:58:09;;;;;;;;;;;;;;;24.39;54.69;102019.77;1850615;78;20147;-60
2021/11/06 07:00:36;;;;;;;;;;;;;;;24.51;53.58;102021.98;1850594;78;20158;-59
2021/11/06 07:03:04;;;;;;;;;;;;;;;24.43;53.03;102022.09;1850580;78;20151;-60
2021/11/06 07:05:32;;;;;;;;;;;;;;;24.56;52.92;102015.30;1850537;78;20235;-60
2021/11/06 07:08:00;;;;;;;;;;;;;;;24.57;51.25;102012.14;1850578;78;20109;-60
2021/11/06 07:10:28;;;;;;;;;;;;;;;24.78;51.92;102016.30;1850589;78;20117;-60
2021/11/06 07:12:55;;;;;;;;;;;;;;;24.91;51.65;102017.03;1850600;78;20151;-60
2021/11/06 07:15:24;;;;;;;;;;;;;;;24.52;52.10;102013.83;1850564;78;20105;-60
2021/11/06 07:17:52;;;;;;;;;;;;;;;24.31;52.75;102010.07;1850582;78;20125;-60
2021/11/06 07:20:20;;;;;;;;;;;;;;;24.91;51.91;102011.64;1850496;78;20160;-60
2021/11/06 07:22:48;;;;;;;;;;;;;;;25.54;50.31;102017.34;1850573;78;20121;-60
2021/11/06 07:25:16;;;;;;;;;;;;;;;25.99;48.96;102012.33;1850564;78;20180;-60
2021/11/06 07:27:43;;;;;;;;;;;;;;;26.46;49.02;101999.27;1850704;78;20169;-60
2021/11/06 07:30:12;;;;;;;;;;;;;;;25.84;48.04;102010.40;1850565;78;20105;-60
2021/11/06 07:32:39;;;;;;;;;;;;;;;25.33;49.30;102017.77;1850529;77;20168;-60
2021/11/06 07:35:07;;;;;;;;;;;;;;;26.08;47.78;102015.59;1850586;78;20104;-61
2021/11/06 07:37:37;;;;;;;;;;;;;;;26.66;46.53;102011.06;1850590;78;20128;-61
2021/11/06 07:40:07;;;;;;;;;;;;;;;26.89;44.51;102009.53;1872632;76;20121;-61
2021/11/06 07:42:36;;;;;;;;;;;;;;;27.05;44.73;102009.03;1886816;76;20128;-61
2021/11/06 07:45:05;;;;;;;;;;;;;;;26.93;44.59;102002.88;1886948;76;20143;-61
2021/11/06 07:47:33;;;;;;;;;;;;;;;26.98;44.68;102011.41;1886844;76;20413;-60
2021/11/06 07:50:01;;;;;;;;;;;;;;;27.25;44.67;102008.59;1886869;76;20128;-61
2021/11/06 07:52:29;;;;;;;;;;;;;;;27.48;44.62;102018.22;1886832;76;20121;-61
2021/11/06 07:54:57;;;;;;;;;;;;;;;28.01;43.88;102011.56;1886864;76;20367;-62
2021/11/06 07:57:25;;;;;;;;;;;;;;;28.58;43.76;102017.55;1886831;76;20120;-61
2021/11/06 07:59:52;;;;;;;;;;;;;;;29.12;43.58;102022.66;1886712;76;20199;-61
2021/11/06 08:02:20;;;;;;;;;;;;;;;29.67;42.93;102026.36;1886870;76;20176;-61
2021/11/06 08:04:48;;;;;;;;;;;;;;;30.00;42.11;102021.59;1886765;76;20147;-61
2021/11/06 08:07:16;;;;;;;;;;;;;;;30.12;41.79;102026.78;1886838;76;20120;-61
2021/11/06 08:09:44;;;;;;;;;;;;;;;30.20;41.36;102029.06;1886868;76;20125;-61
2021/11/06 08:12:11;;;;;;;;;;;;;;;30.15;40.98;102030.03;1886831;76;20113;-62
2021/11/06 08:14:39;;;;;;;;;;;;;;;29.99;40.50;102028.54;1886768;76;20198;-61
2021/11/06 08:17:07;;;;;;;;;;;;;;;29.83;40.09;102031.47;1886859;76;20121;-61
2021/11/06 08:19:35;;;;;;;;;;;;;;;29.68;40.38;102033.00;1886868;76;20113;-61
2021/11/06 08:22:03;;;;;;;;;;;;;;;29.54;38.64;102030.30;1886819;76;20120;-61
2021/11/06 08:24:31;;;;;;;;;;;;;;;29.46;39.93;102035.65;1886814;76;20183;-61
2021/11/06 08:26:58;;;;;;;;;;;;;;;29.39;39.65;102034.04;1886793;76;20215;-61
2021/11/06 08:29:26;;;;;;;;;;;;;;;29.29;38.99;102035.09;1886861;76;20117;-61
2021/11/06 08:31:58;;;;;;;;;;;;;;;28.62;39.92;102037.93;1886860;76;20121;-61
2021/11/06 08:34:23;;;;;;;;;;;;;;;28.48;39.81;102035.17;1886841;76;20147;-61
2021/11/06 08:36:51;;;;;;;;;;;;;;;28.30;40.08;102031.83;1886832;76;20125;-61
2021/11/06 08:39:20;;;;;;;;;;;;;;;28.92;39.09;102022.41;1886746;76;20147;-61
2021/11/06 08:41:52;;;;;;;;;;;;;;;28.90;37.88;102016.29;1858283;75;20156;-61
2021/11/06 08:44:20;;;;;;;;;;;;;;;28.36;37.89;102019.56;1850531;78;20425;-61
2021/11/06 08:46:49;;;;;;;;;;;;;;;28.63;37.95;102020.69;1850691;78;20159;-61
2021/11/06 08:49:17;;;;;;;;;;;;;;;28.79;37.80;102007.36;1850770;78;20109;-61
2021/11/06 08:51:46;;;;;;;;;;;;;;;28.49;37.72;102007.06;1850498;76;20118;-62
2021/11/06 08:54:16;;;;;;;;;;;;;;;28.69;37.67;101999.25;1850537;78;20388;-62
2021/11/06 08:56:44;;;;;;;;;;;;;;;28.86;37.05;101994.89;1850568;78;20164;-61
2021/11/06 08:59:12;;;;;;;;;;;;;;;29.01;36.97;101995.27;1850536;78;20129;-61
2021/11/06 09:01:40;;;;;;;;;;;;;;;28.97;36.72;101989.78;1850536;78;20148;-61
2021/11/06 09:04:08;;;;;;;;;;;;;;;29.26;36.64;101984.22;1850485;78;20152;-63
2021/11/06 09:06:38;;;;;;;;;;;;;;;29.57;36.53;101996.08;1850447;78;20192;-61
2021/11/06 09:09:07;;;;;;;;;;;;;;;29.73;36.54;101983.66;1850637;78;20121;-62
2021/11/06 09:11:36;;;;;;;;;;;;;;;29.62;36.18;101983.38;1850609;76;20113;-61
2021/11/06 09:14:05;;;;;;;;;;;;;;;29.54;36.12;101980.09;1850549;76;20121;-61
2021/11/06 09:16:32;;;;;;;;;;;;;;;29.25;35.99;101978.94;1850526;78;20148;-61
2021/11/06 09:19:04;;;;;;;;;;;;;;;29.00;36.12;101978.64;1850451;78;20211;-61
2021/11/06 09:21:33;;;;;;;;;;;;;;;29.20;36.55;101979.92;1850522;78;20410;-61
2021/11/06 09:24:04;;;;;;;;;;;;;;;29.36;36.05;101979.23;1850517;78;20165;-61
2021/11/06 09:26:33;;;;;;;;;;;;;;;29.32;35.79;101978.69;1850642;78;20118;-61
2021/11/06 09:29:01;;;;;;;;;;;;;;;29.46;36.01;101971.89;1850565;78;20199;-62
2021/11/06 09:31:29;;;;;;;;;;;;;;;29.50;35.86;101974.63;1850471;78;20117;-61
2021/11/06 09:33:57;;;;;;;;;;;;;;;28.99;36.15;101972.01;1850544;78;20117;-62
2021/11/06 09:36:25;;;;;;;;;;;;;;;28.18;36.48;101974.77;1850568;78;20105;-60
2021/11/06 09:38:54;;;;;;;;;;;;;;;28.22;36.77;101973.97;1850575;78;20121;-60
2021/11/06 09:41:22;;;;;;;;;;;;;;;28.42;36.45;101969.36;1850502;76;20121;-59
2021/11/06 09:43:50;;;;;;;;;;;;;;;28.39;36.42;101967.81;1850418;78;20121;-60
2021/11/06 09:46:18;;;;;;;;;;;;;;;28.61;36.46;101968.50;1850624;78;20204;-60
2021/11/06 09:48:47;;;;;;;;;;;;;;;29.01;36.33;101972.23;1850526;78;20148;-60
2021/11/06 09:51:16;;;;;;;;;;;;;;;29.05;36.13;101964.64;1850529;78;20152;-60
2021/11/06 09:53:45;;;;;;;;;;;;;;;28.57;36.24;101965.23;1850533;78;20105;-60
2021/11/06 09:56:15;;;;;;;;;;;;;;;28.21;36.59;101961.45;1850522;78;20391;-60
2021/11/06 09:58:43;;;;;;;;;;;;;;;28.14;36.74;101961.17;1850513;78;20180;-60
2021/11/06 10:01:11;;;;;;;;;;;;;;;28.21;36.80;101964.16;1850527;78;20203;-60
2021/11/06 10:03:39;;;;;;;;;;;;;;;28.25;36.77;101962.86;1850503;78;20192;-61
2021/11/06 10:06:09;;;;;;;;;;;;;;;28.57;36.74;101958.94;1850499;78;20117;-62
2021/11/06 10:08:38;;;;;;;;;;;;;;;28.72;36.72;101959.30;1849936;77;20121;-61
2021/11/06 10:11:16;;;;;;;;;;;;;;;28.78;36.70;101958.20;1850447;78;20377;-61
2021/11/06 10:13:55;;;;;;;;;;;;;;;28.47;36.77;101963.02;1850654;78;20121;-61
2021/11/06 10:16:36;;;;;;;;;;;;;;;28.29;37.08;101963.79;1850542;76;20117;-61
2021/11/06 10:19:05;;;;;;;;;;;;;;;28.17;37.23;101965.45;1850538;77;20113;-61
2021/11/06 10:21:33;;;;;;;;;;;;;;;27.84;37.65;101963.55;1849039;76;20199;-61
2021/11/06 10:24:01;;;;;;;;;;;;;;;27.79;37.93;101959.05;1850524;78;20161;-61
2021/11/06 10:26:29;;;;;;;;;;;;;;;27.98;38.02;101958.20;1850585;78;20113;-61
2021/11/06 10:29:05;;;;;;;;;;;;;;;27.91;38.00;101957.95;1850601;78;20109;-61
2021/11/06 10:31:34;;;;;;;;;;;;;;;27.91;38.26;101958.79;1850464;76;20113;-62
2021/11/06 10:34:03;;;;;;;;;;;;;;;27.96;38.32;101954.31;1850970;76;20121;-61
2021/11/06 10:36:31;;;;;;;;;;;;;;;27.87;38.78;101957.86;1850080;77;20581;-61
2021/11/06 10:39:00;;;;;;;;;;;;;;;27.89;38.93;101949.09;1850514;78;20137;-61
2021/11/06 10:41:29;;;;;;;;;;;;;;;27.83;38.81;101948.29;1855801;76;20387;-61
2021/11/06 10:43:58;;;;;;;;;;;;;;;27.45;38.93;101956.28;1886578;76;20125;-62
2021/11/06 10:46:28;;;;;;;;;;;;;;;27.36;39.37;101961.17;1886343;76;20120;-61
2021/11/06 10:48:57;;;;;;;;;;;;;;;27.36;39.40;101957.12;1886296;76;20105;-61
2021/11/06 10:51:25;;;;;;;;;;;;;;;26.91;39.97;101957.08;1886091;76;20113;-61
2021/11/06 10:53:57;;;;;;;;;;;;;;;25.90;41.47;101955.06;1886414;76;20147;-61
2021/11/06 10:56:29;;;;;;;;;;;;;;;25.08;42.82;101955.55;1886442;76;20367;-61
2021/11/06 10:58:58;;;;;;;;;;;;;;;24.87;43.43;101953.61;1886344;76;20376;-61
2021/11/06 11:01:28;;;;;;;;;;;;;;;24.65;43.58;101953.98;1886440;76;20379;-61
2021/11/06 11:04:03;;;;;;;;;;;;;;;23.92;44.71;101952.98;1886483;76;20117;-61
2021/11/06 11:06:37;;;;;;;;;;;;;;;23.43;45.50;101952.99;1875679;76;20202;-61
2021/11/06 11:09:02;;;;;;;;;;;;;;;23.07;46.15;101946.69;1883125;76;20160;-61
2021/11/06 11:11:32;;;;;;;;;;;;;;;23.15;46.08;101938.53;1886339;76;20124;-61
2021/11/06 11:14:09;;;;;;;;;;;;;;;23.37;45.68;101935.11;1885596;76;20121;-61
2021/11/06 11:16:37;;;;;;;;;;;;;;;23.33;45.67;101935.83;1886359;76;20159;-61
2021/11/06 11:19:06;;;;;;;;;;;;;;;22.98;45.90;101939.27;1886343;76;20121;-61
2021/11/06 11:21:35;;;;;;;;;;;;;;;22.73;46.24;101934.80;1886418;76;20387;-61
2021/11/06 11:24:04;;;;;;;;;;;;;;;22.60;46.49;101932.14;1882827;76;20203;-61
2021/11/06 11:26:33;;;;;;;;;;;;;;;22.49;46.83;101924.84;1886344;76;20379;-60
2021/11/06 11:29:03;;;;;;;;;;;;;;;22.40;46.86;101930.01;1886397;76;20175;-62
2021/11/06 11:31:31;;;;;;;;;;;;;;;22.41;46.96;101934.39;1886458;76;20263;-61
2021/11/06 11:34:00;;;;;;;;;;;;;;;22.42;47.07;101925.39;1886399;76;20121;-61
2021/11/06 11:36:29;;;;;;;;;;;;;;;22.28;47.46;101927.22;1886316;76;20147;-61
2021/11/06 11:38:56;;;;;;;;;;;;;;;22.09;47.63;101923.56;1886595;76;20414;-61
2021/11/06 11:41:46;;;;;;;;;;;;;;;22.03;47.78;101936.07;1886549;76;20116;-61
2021/11/06 11:44:24;;;;;;;;;;;;;;;22.02;47.84;101936.17;1886667;76;20125;-61
2021/11/06 11:46:53;;;;;;;;;;;;;;;21.93;48.15;101929.15;1886409;76;20194;-61
2021/11/06 11:49:22;;;;;;;;;;;;;;;21.96;48.37;101935.62;1868099;76;20124;-61
2021/11/06 11:51:50;;;;;;;;;;;;;;;21.88;48.66;101932.61;1885653;76;20116;-61
2021/11/06 11:54:19;;;;;;;;;;;;;;;21.62;49.46;101928.17;1886547;76;20125;-60
2021/11/06 11:56:47;;;;;;;;;;;;;;;21.35;50.01;101927.16;1886519;76;20101;-61
2021/11/06 11:59:16;;;;;;;;;;;;;;;21.08;50.61;101924.95;1886636;76;20167;-61
2021/11/06 12:01:43;;;;;;;;;;;;;;;20.54;51.69;101931.86;1878511;76;20151;-61
2021/11/06 12:04:17;;;;;;;;;;;;;;;20.10;52.22;101927.91;1886539;76;20180;-61
2021/11/06 12:06:45;;;;;;;;;;;;;;;19.86;52.75;101933.77;1886254;76;20139;-60
2021/11/06 12:09:14;;;;;;;;;;;;;;;19.70;52.90;101938.26;1886523;76;20168;-61
2021/11/06 12:11:46;;;;;;;;;;;;;;;19.60;53.20;101938.80;1886477;76;20160;-62
2021/11/06 12:14:18;;;;;;;;;;;;;;;19.50;53.42;101940.30;1886510;76;20391;-61
2021/11/06 12:16:50;;;;;;;;;;;;;;;19.38;53.67;101939.66;1880399;76;20457;-61
2021/11/06 12:19:19;;;;;;;;;;;;;;;19.27;54.09;101945.16;1886534;76;20179;-60
2021/11/06 12:21:47;;;;;;;;;;;;;;;19.16;54.47;101945.34;1867815;76;20116;-61
2021/11/06 12:24:16;;;;;;;;;;;;;;;19.20;54.75;101944.22;1885988;76;20171;-61
2021/11/06 12:26:48;;;;;;;;;;;;;;;19.21;54.72;101947.30;1901493;75;20118;-60
2021/11/06 12:29:18;;;;;;;;;;;;;;;19.17;55.15;101949.27;1916960;75;20119;-61
2021/11/06 12:31:50;;;;;;;;;;;;;;;19.12;55.35;101945.99;1901601;75;20116;-60
2021/11/06 12:34:41;;;;;;;;;;;;;;;18.99;55.84;101943.14;1895006;75;20143;-60
2021/11/06 12:37:05;;;;;;;;;;;;;;;19.04;56.87;101939.75;1896752;75;20163;-59
2021/11/06 12:39:53;;;;;;;;;;;;;;;19.11;56.60;101952.30;1885080;75;20129;-60
2021/11/06 12:42:22;;;;;;;;;;;;;;;19.05;56.90;101954.84;1908793;74;20388;-61
2021/11/06 12:44:51;;;;;;;;;;;;;;;19.00;56.92;101960.05;1916122;75;20122;-60
2021/11/06 12:47:20;;;;;;;;;;;;;;;18.91;56.88;101956.06;1894740;75;20414;-60